Time;durP1;ratioP1;P1;durP2;ratioP2;P2;SDS_P1;SDS_P2;PMS_P1;PMS_P2;Temp;Humidity;BMP_temperature;BMP_pressure;BME280_temperature;BME280_humidity;BME280_pressure;Samples;Min_cycle;Max_cycle;Signal;HPM_P1;HPM_P2
2023/02/10 00:01:17;;;;;;;;;79.25;63.00;;;;;8.58;100.00;102991.69;4909010;28;45342;-83
2023/02/10 00:03:43;;;;;;;;;82.25;61.25;;;;;8.63;100.00;102981.38;4910955;28;47369;-82
2023/02/10 00:06:10;;;;;;;;;81.75;60.75;;;;;8.72;100.00;102976.59;4910574;28;45412;-83
2023/02/10 00:08:36;;;;;;;;;76.75;59.50;;;;;8.75;100.00;102988.28;4926207;28;45437;-83
2023/02/10 00:11:05;;;;;;;;;84.00;63.75;;;;;8.83;100.00;102983.44;4927093;28;45461;-83
2023/02/10 00:13:31;;;;;;;;;80.75;63.75;;;;;8.82;100.00;102986.91;4926782;28;45709;-83
2023/02/10 00:15:58;;;;;;;;;78.75;62.25;;;;;8.82;100.00;102973.63;4924956;28;45792;-83
2023/02/10 00:18:24;;;;;;;;;81.00;63.50;;;;;8.83;100.00;102980.78;4926084;28;44902;-83
2023/02/10 00:20:50;;;;;;;;;80.50;62.75;;;;;8.82;100.00;102982.50;4927259;28;45338;-83
2023/02/10 00:23:28;;;;;;;;;83.00;66.00;;;;;8.93;100.00;102983.13;4910013;28;48202;-83
2023/02/10 00:25:53;;;;;;;;;76.25;62.75;;;;;8.84;100.00;102982.59;4927250;28;45421;-83
2023/02/10 00:28:18;;;;;;;;;82.00;66.75;;;;;8.81;100.00;102974.47;4926633;28;45718;-83
2023/02/10 00:30:44;;;;;;;;;85.00;66.00;;;;;8.78;100.00;102972.53;4910156;28;45432;-83
2023/02/10 00:33:09;;;;;;;;;88.00;69.75;;;;;8.70;100.00;102964.97;4909799;28;47805;-83
2023/02/10 00:35:36;;;;;;;;;81.25;64.00;;;;;8.67;100.00;102952.44;4910432;28;45675;-83
2023/02/10 00:38:02;;;;;;;;;83.00;62.50;;;;;8.76;100.00;102970.63;4925739;28;45513;-83
2023/02/10 00:40:27;;;;;;;;;79.50;63.25;;;;;8.57;100.00;102928.88;4908463;28;45888;-83
2023/02/10 00:42:52;;;;;;;;;78.00;61.75;;;;;8.74;100.00;102961.66;4926198;28;45513;-83
2023/02/10 00:45:18;;;;;;;;;82.75;63.00;;;;;8.81;100.00;102972.72;4927301;28;45603;-83
2023/02/10 00:47:43;;;;;;;;;71.50;57.00;;;;;8.77;100.00;102967.16;4925871;28;45472;-83
2023/02/10 00:50:08;;;;;;;;;76.25;60.25;;;;;8.81;100.00;102970.06;4923120;28;45499;-83
2023/02/10 00:52:34;;;;;;;;;80.00;59.75;;;;;8.79;100.00;102960.19;4907723;29;46147;-83
2023/02/10 00:54:59;;;;;;;;;83.00;62.75;;;;;8.86;100.00;102964.09;4907446;29;45430;-82
2023/02/10 00:57:25;;;;;;;;;69.00;55.75;;;;;8.87;100.00;102961.56;4905184;29;45405;-84
2023/02/10 00:59:50;;;;;;;;;62.25;49.00;;;;;8.90;100.00;102955.50;4890524;29;45471;-84
2023/02/10 01:02:15;;;;;;;;;76.00;59.00;;;;;8.97;100.00;102976.25;4906459;29;47830;-83
2023/02/10 01:04:41;;;;;;;;;68.00;55.50;;;;;8.96;100.00;102962.06;4906461;29;45399;-83
2023/02/10 01:07:06;;;;;;;;;70.25;56.25;;;;;9.02;100.00;102978.31;4907842;29;45359;-83
2023/02/10 01:09:32;;;;;;;;;29.75;23.75;;;;;8.97;100.00;102966.53;4907784;28;45387;-82
2023/02/10 01:11:57;;;;;;;;;70.25;55.75;;;;;9.02;100.00;102975.66;4907455;28;48252;-82
2023/02/10 01:14:23;;;;;;;;;74.00;56.00;;;;;9.01;100.00;102973.84;4925629;28;45323;-82
2023/02/10 01:16:49;;;;;;;;;69.50;56.00;;;;;9.01;100.00;102979.16;4908380;28;45480;-83
2023/02/10 01:19:14;;;;;;;;;69.25;54.25;;;;;9.04;100.00;102977.50;4910070;28;45406;-83
2023/02/10 01:21:40;;;;;;;;;69.25;54.50;;;;;9.04;100.00;102977.50;4924699;28;47409;-83
2023/02/10 01:24:06;;;;;;;;;68.75;55.75;;;;;8.96;100.00;102967.34;4909429;28;45667;-83
2023/02/10 01:26:33;;;;;;;;;76.75;58.50;;;;;9.06;100.00;102970.53;4909610;28;45461;-82
2023/02/10 01:28:59;;;;;;;;;69.50;57.00;;;;;9.04;100.00;102978.41;4909175;28;45416;-82
2023/02/10 01:31:25;;;;;;;;;72.00;57.00;;;;;9.03;100.00;102976.59;4923189;28;47080;-83
2023/02/10 01:33:52;;;;;;;;;72.75;58.00;;;;;9.10;100.00;102983.16;4927482;28;45353;-83
2023/02/10 01:36:19;;;;;;;;;67.75;54.25;;;;;9.03;100.00;102971.28;4911056;28;45604;-83
2023/02/10 01:38:45;;;;;;;;;66.00;55.50;;;;;9.04;100.00;102980.16;4910674;28;45467;-83
2023/02/10 01:41:13;;;;;;;;;67.75;55.50;;;;;9.03;100.00;102979.25;4910310;28;46700;-83
2023/02/10 01:43:59;;;;;;;;;81.75;63.00;;;;;9.03;100.00;102979.25;4926077;28;45495;-84
2023/02/10 01:46:24;;;;;;;;;78.00;60.00;;;;;8.87;100.00;102976.56;4922728;28;45502;-83
2023/02/10 01:48:51;;;;;;;;;82.00;64.00;;;;;8.71;100.00;102953.56;4909607;28;45452;-83
2023/02/10 01:51:24;;;;;;;;;78.50;62.75;;;;;8.73;100.00;102960.75;4925138;28;47472;-83
2023/02/10 01:53:50;;;;;;;;;80.00;63.25;;;;;8.72;100.00;102979.22;4926687;28;45433;-82
2023/02/10 01:56:16;;;;;;;;;76.25;60.75;;;;;8.71;100.00;102977.41;4907767;28;45380;-83
2023/02/10 01:58:44;;;;;;;;;80.00;62.50;;;;;8.59;100.00;102978.53;4908908;28;45378;-82
2023/02/10 02:01:09;;;;;;;;;82.75;64.00;;;;;8.53;100.00;102967.56;4924468;28;48125;-83
2023/02/10 02:03:35;;;;;;;;;76.75;59.75;;;;;8.53;100.00;102977.25;4908339;28;45727;-83
2023/02/10 02:06:01;;;;;;;;;84.50;65.25;;;;;8.47;100.00;102975.16;4926045;28;45457;-83
2023/02/10 02:08:30;;;;;;;;;78.00;62.25;;;;;8.57;100.00;102985.47;4924931;28;45771;-83
2023/02/10 02:11:13;;;;;;;;;78.00;61.50;;;;;8.60;100.00;102988.31;4910594;28;47380;-82
2023/02/10 02:14:06;;;;;;;;;79.50;62.75;;;;;8.59;100.00;102982.94;4911057;28;45505;-83
2023/02/10 02:16:32;;;;;;;;;72.50;56.75;;;;;8.48;100.00;102981.38;4929615;28;45352;-83
2023/02/10 02:19:47;;;;;;;;;72.50;57.00;;;;;8.55;100.00;102976.53;4911049;28;46085;-83
2023/02/10 02:22:31;;;;;;;;;75.25;60.00;;;;;8.39;100.00;102960.50;4926225;28;47027;-83
2023/02/10 02:25:08;;;;;;;;;76.75;60.75;;;;;8.46;100.00;102980.38;4927947;28;45479;-83
2023/02/10 02:27:55;;;;;;;;;78.50;60.75;;;;;8.46;100.00;102969.75;4927297;28;45520;-83
2023/02/10 02:30:32;;;;;;;;;76.00;61.25;;;;;8.41;100.00;102977.47;4928267;28;45634;-83
2023/02/10 02:33:18;;;;;;;;;72.50;57.75;;;;;8.46;100.00;102981.28;4910181;28;48414;-83
2023/02/10 02:36:00;;;;;;;;;73.75;60.00;;;;;8.46;100.00;102980.38;4908896;28;45280;-84
2023/02/10 02:38:26;;;;;;;;;72.00;57.50;;;;;8.35;100.00;102961.16;4909246;28;45389;-84
2023/02/10 02:40:51;;;;;;;;;75.00;57.75;;;;;8.36;100.00;102978.88;4910000;28;45568;-84
2023/02/10 02:43:17;;;;;;;;;70.75;56.50;;;;;8.38;100.00;102974.56;4909500;28;46935;-83
2023/02/10 02:46:12;;;;;;;;;71.75;58.75;;;;;8.48;100.00;102973.41;4929289;28;45357;-84
2023/02/10 02:48:52;;;;;;;;;73.50;59.25;;;;;8.43;100.00;102980.22;4930444;28;45423;-84
2023/02/10 02:51:18;;;;;;;;;75.00;60.00;;;;;8.43;100.00;102985.50;4910454;28;45318;-83
2023/02/10 02:53:58;;;;;;;;;74.00;59.50;;;;;8.48;100.00;102984.94;4926450;28;45479;-83
2023/02/10 02:56:49;;;;;;;;;75.25;56.75;;;;;8.53;100.00;102988.78;4911215;28;45487;-83
2023/02/10 02:59:27;;;;;;;;;76.00;60.25;;;;;8.50;100.00;102987.69;4910926;28;45406;-83
2023/02/10 03:01:58;;;;;;;;;78.75;61.00;;;;;8.54;100.00;103000.28;4928673;28;45385;-83
2023/02/10 03:04:28;;;;;;;;;74.00;60.25;;;;;8.58;100.00;102989.03;4908574;28;48125;-83
2023/02/10 03:06:54;;;;;;;;;70.00;58.25;;;;;8.54;100.00;102985.31;4909912;28;45549;-83
2023/02/10 03:09:20;;;;;;;;;74.50;56.75;;;;;8.59;100.00;102989.13;4909886;28;45347;-83
2023/02/10 03:11:45;;;;;;;;;69.75;55.75;;;;;8.55;100.00;102981.81;4908825;28;45429;-83
2023/02/10 03:14:10;;;;;;;;;76.00;57.50;;;;;8.54;100.00;102980.00;4909451;28;47123;-83
2023/02/10 03:16:36;;;;;;;;;74.50;57.00;;;;;8.63;100.00;102989.34;4912338;28;45466;-83
2023/02/10 03:19:01;;;;;;;;;71.25;55.00;;;;;8.72;100.00;102981.88;4929283;28;45437;-83
2023/02/10 03:21:27;;;;;;;;;72.25;58.00;;;;;8.79;100.00;102981.44;4927812;28;45775;-83
2023/02/10 03:23:53;;;;;;;;;69.25;54.50;;;;;8.83;100.00;102980.78;4912089;28;46083;-83
2023/02/10 03:26:18;;;;;;;;;71.50;58.25;;;;;8.82;100.00;102986.91;4911241;28;45516;-83
2023/02/10 03:28:43;;;;;;;;;69.00;53.75;;;;;8.74;100.00;102982.88;4926490;28;45728;-83
2023/02/10 03:31:09;;;;;;;;;72.75;56.50;;;;;8.73;100.00;102986.38;4911793;28;45422;-82
2023/02/10 03:33:34;;;;;;;;;69.75;56.00;;;;;8.67;100.00;102975.41;4909693;28;47500;-83
2023/02/10 03:36:00;;;;;;;;;69.75;53.50;;;;;8.72;100.00;102996.06;4910563;28;45382;-83
2023/02/10 03:38:27;;;;;;;;;66.75;55.75;;;;;8.76;100.00;102991.84;4910937;28;45488;-83
2023/02/10 03:40:53;;;;;;;;;72.50;56.00;;;;;8.79;100.00;102987.63;4911299;28;45425;-83
2023/02/10 03:43:19;;;;;;;;;65.25;54.25;;;;;8.83;100.00;102978.13;4928838;28;46311;-84
2023/02/10 03:45:46;;;;;;;;;65.00;53.25;;;;;8.87;100.00;102984.53;4926604;28;45475;-83
2023/02/10 03:48:12;;;;;;;;;71.50;56.75;;;;;8.87;100.00;102984.53;4927660;28;45554;-83
2023/02/10 03:50:37;;;;;;;;;70.50;55.50;;;;;8.77;100.00;102969.81;4910672;28;45755;-83
2023/02/10 03:53:04;;;;;;;;;68.00;55.00;;;;;8.86;100.00;102982.69;4927057;28;46993;-83
2023/02/10 03:55:29;;;;;;;;;69.25;53.00;;;;;8.77;100.00;102972.47;4910471;28;45500;-84
2023/02/10 03:57:55;;;;;;;;;72.00;56.00;;;;;8.78;100.00;102976.94;4928377;28;44769;-83
2023/02/10 04:00:20;;;;;;;;;65.00;52.00;;;;;8.73;100.00;102981.06;4912443;28;45387;-82
2023/02/10 04:02:46;;;;;;;;;70.75;55.50;;;;;8.68;100.00;102980.78;4927946;28;47129;-83
2023/02/10 04:05:11;;;;;;;;;60.75;52.00;;;;;8.61;100.00;102970.66;4926237;28;45442;-83
2023/02/10 04:07:37;;;;;;;;;66.50;54.00;;;;;8.58;100.00;102974.06;4926440;28;45398;-83
2023/02/10 04:10:04;;;;;;;;;64.25;52.75;;;;;8.53;100.00;102971.97;4927079;28;45747;-83
2023/02/10 04:12:29;;;;;;;;;65.50;51.75;;;;;8.53;100.00;102991.44;4908847;28;47278;-83
2023/02/10 04:14:56;;;;;;;;;69.00;54.00;;;;;8.60;100.00;102996.28;4925195;28;45696;-84
2023/02/10 04:17:22;;;;;;;;;64.25;50.00;;;;;8.53;100.00;102983.47;4909637;28;45507;-84
2023/02/10 04:19:47;;;;;;;;;60.50;48.75;;;;;8.56;100.00;102988.03;4925820;28;45786;-83
2023/02/10 04:22:12;;;;;;;;;65.25;52.00;;;;;8.52;100.00;102976.31;4909828;28;47448;-84
2023/02/10 04:24:38;;;;;;;;;69.50;53.25;;;;;8.47;100.00;102971.59;4909181;28;45461;-84
2023/02/10 04:27:03;;;;;;;;;63.75;52.00;;;;;8.48;100.00;102984.03;4927262;28;44967;-83
2023/02/10 04:29:28;;;;;;;;;56.50;47.00;;;;;8.49;100.00;102980.56;4910349;28;45516;-83
2023/02/10 04:31:54;;;;;;;;;59.75;50.25;;;;;8.50;100.00;102991.22;4910975;28;47112;-83
2023/02/10 04:34:19;;;;;;;;;63.75;50.50;;;;;8.48;100.00;103003.50;4910229;28;45389;-83
2023/02/10 04:36:44;;;;;;;;;63.25;50.50;;;;;8.48;100.00;103014.09;4925803;28;45102;-83
2023/02/10 04:39:10;;;;;;;;;59.50;48.75;;;;;8.52;100.00;103021.41;4911101;28;45424;-82
2023/02/10 04:41:35;;;;;;;;;62.00;49.00;;;;;8.52;100.00;103029.38;4927587;28;45372;-84
2023/02/10 04:44:01;;;;;;;;;58.50;46.25;;;;;8.53;100.00;103031.22;4910162;28;45371;-83
2023/02/10 04:46:26;;;;;;;;;55.50;47.25;;;;;8.54;100.00;103024.16;4926538;28;45399;-82
2023/02/10 04:48:51;;;;;;;;;66.00;50.00;;;;;8.49;100.00;103010.66;4925748;28;45405;-82
2023/02/10 04:51:17;;;;;;;;;59.50;49.25;;;;;8.52;100.00;103021.41;4923973;28;46852;-83
2023/02/10 04:53:43;;;;;;;;;58.00;47.00;;;;;8.46;100.00;103022.78;4924059;28;45543;-82
2023/02/10 04:56:09;;;;;;;;;60.00;48.50;;;;;8.47;100.00;103027.28;4908734;28;45433;-83
2023/02/10 04:58:34;;;;;;;;;60.50;48.25;;;;;8.45;100.00;103016.59;4926921;28;45853;-83
2023/02/10 05:01:02;;;;;;;;;57.75;46.25;;;;;8.53;100.00;103025.00;4927086;28;45404;-83
2023/02/10 05:03:27;;;;;;;;;56.00;47.00;;;;;8.47;100.00;103024.66;4908229;28;45855;-83
2023/02/10 05:05:53;;;;;;;;;61.50;50.00;;;;;8.44;100.00;103020.03;4925040;28;45416;-83
2023/02/10 05:08:19;;;;;;;;;63.50;48.75;;;;;8.45;100.00;103021.91;4905501;28;45438;-82
2023/02/10 05:10:47;;;;;;;;;50.75;42.25;;;;;8.51;100.00;103021.34;4891007;29;47142;-82
2023/02/10 05:13:12;;;;;;;;;59.75;47.75;;;;;8.48;100.00;103016.75;4906216;29;45452;-83
2023/02/10 05:15:38;;;;;;;;;58.00;47.50;;;;;8.51;100.00;103016.94;4906051;29;45250;-83
2023/02/10 05:18:03;;;;;;;;;59.00;44.00;;;;;8.52;100.00;103018.75;4907061;29;45734;-83
2023/02/10 05:20:28;;;;;;;;;54.50;44.00;;;;;8.46;100.00;103010.44;4906100;29;46662;-82
2023/02/10 05:22:54;;;;;;;;;59.25;48.50;;;;;8.45;100.00;103013.94;4907703;29;45446;-83
2023/02/10 05:25:19;;;;;;;;;58.25;47.75;;;;;8.47;100.00;103019.34;4906557;29;45646;-84
2023/02/10 05:27:45;;;;;;;;;59.00;44.50;;;;;8.50;100.00;103016.84;4889963;29;45581;-84
2023/02/10 05:30:12;;;;;;;;;60.00;47.75;;;;;8.46;100.00;103022.78;4907633;28;47293;-84
2023/02/10 05:32:39;;;;;;;;;57.50;44.50;;;;;8.44;100.00;103022.69;4907111;29;45433;-84
2023/02/10 05:35:04;;;;;;;;;53.25;44.50;;;;;8.36;100.00;102998.38;4906577;28;45323;-84
2023/02/10 05:37:30;;;;;;;;;52.00;44.00;;;;;8.42;100.00;103024.34;4927510;28;45609;-84
2023/02/10 05:39:56;;;;;;;;;52.50;44.00;;;;;8.43;100.00;103017.34;4910546;28;46767;-84
2023/02/10 05:42:21;;;;;;;;;53.75;41.75;;;;;8.46;100.00;103034.31;4927418;28;45384;-84
2023/02/10 05:44:46;;;;;;;;;55.00;41.75;;;;;8.46;100.00;103030.75;4926683;28;45504;-83
2023/02/10 05:47:12;;;;;;;;;52.33;42.00;;;;;8.50;100.00;103035.41;4924995;28;45403;-84
2023/02/10 05:49:37;;;;;;;;;51.50;40.75;;;;;8.50;100.00;103031.03;4907703;28;47072;-83
2023/02/10 05:52:02;;;;;;;;;49.00;42.33;;;;;8.51;100.00;103042.56;4924734;28;45334;-84
2023/02/10 05:54:28;;;;;;;;;53.33;42.67;;;;;8.53;100.00;103036.53;4924123;28;45271;-83
2023/02/10 05:56:54;;;;;;;;;30.67;30.67;;;;;8.52;100.00;103033.75;4926722;28;45353;-84
2023/02/10 05:59:19;;;;;;;;;42.67;39.33;;;;;8.52;100.00;103045.28;4924379;28;47193;-83
2023/02/10 06:01:45;;;;;;;;;52.00;41.67;;;;;8.58;100.00;103045.69;4924706;28;45738;-84
2023/02/10 06:04:10;;;;;;;;;44.00;39.33;;;;;8.56;100.00;103041.09;4908082;28;45753;-82
2023/02/10 06:06:36;;;;;;;;;51.33;42.00;;;;;8.55;100.00;103060.50;4908718;28;45635;-83
2023/02/10 06:09:08;;;;;;;;;43.33;39.00;;;;;8.59;100.00;103046.59;4924476;28;47258;-84
2023/02/10 06:11:34;;;;;;;;;49.00;41.67;;;;;8.50;100.00;103053.97;4925325;28;45630;-83
2023/02/10 06:14:43;;;;;;;;;44.67;39.67;;;;;8.56;100.00;103052.63;4923655;28;45511;-83
2023/02/10 06:17:09;;;;;;;;;42.33;39.33;;;;;8.41;100.00;103051.69;4923912;28;45472;-84
2023/02/10 06:19:38;;;;;;;;;48.33;40.00;;;;;8.41;100.00;103057.00;4908227;28;46996;-84
2023/02/10 06:22:05;;;;;;;;;50.67;39.33;;;;;8.44;100.00;103057.16;4908675;28;45394;-84
2023/02/10 06:24:38;;;;;;;;;48.33;39.67;;;;;8.43;100.00;103059.75;4925714;28;45497;-83
2023/02/10 06:27:03;;;;;;;;;42.00;37.67;;;;;8.35;100.00;103046.00;4924202;28;45442;-84
2023/02/10 06:29:29;;;;;;;;;39.67;37.33;;;;;8.30;100.00;103044.78;4907978;28;47231;-84
2023/02/10 06:31:55;;;;;;;;;42.33;39.00;;;;;8.32;100.00;103053.75;4907409;28;45594;-84
2023/02/10 06:34:20;;;;;;;;;42.67;37.67;;;;;8.32;100.00;103053.75;4908573;28;45698;-84
2023/02/10 06:36:46;;;;;;;;;51.67;42.33;;;;;8.39;100.00;103061.28;4908283;28;45446;-84
2023/02/10 06:39:12;;;;;;;;;50.33;40.33;;;;;8.30;100.00;103051.03;4892737;28;47291;-83
2023/02/10 06:41:37;;;;;;;;;52.67;43.33;;;;;8.39;100.00;103061.28;4908090;28;45506;-82
2023/02/10 06:44:03;;;;;;;;;54.00;43.00;;;;;8.40;100.00;103061.38;4908689;28;45545;-83
2023/02/10 06:46:28;;;;;;;;;53.00;43.00;;;;;8.31;100.00;103049.28;4908039;28;45376;-83
2023/02/10 06:48:54;;;;;;;;;51.00;42.00;;;;;8.29;100.00;103062.44;4925440;28;48113;-83
2023/02/10 06:51:19;;;;;;;;;49.50;41.75;;;;;8.28;100.00;103054.38;4926168;28;45364;-82
2023/02/10 06:53:45;;;;;;;;;47.33;39.00;;;;;8.23;100.00;103048.81;4929588;28;45421;-83
2023/02/10 06:56:12;;;;;;;;;49.33;39.67;;;;;8.27;100.00;103044.63;4929353;28;45333;-83
2023/02/10 06:58:38;;;;;;;;;47.67;39.00;;;;;8.28;100.00;103059.69;4912765;28;46781;-83
2023/02/10 07:01:16;;;;;;;;;47.00;41.00;;;;;8.35;100.00;103059.25;4912349;28;45278;-84
2023/02/10 07:03:42;;;;;;;;;49.67;42.67;;;;;8.27;100.00;103061.44;4912160;28;45447;-84
2023/02/10 07:06:07;;;;;;;;;56.00;42.33;;;;;8.38;100.00;103062.06;4912726;28;45865;-84
2023/02/10 07:08:32;;;;;;;;;43.67;40.33;;;;;8.34;100.00;103054.75;4930349;28;46199;-84
2023/02/10 07:10:58;;;;;;;;;41.33;36.67;;;;;8.38;100.00;103056.78;4914209;28;45520;-84
2023/02/10 07:13:23;;;;;;;;;46.33;41.33;;;;;8.42;100.00;103061.47;4912725;28;45464;-84
2023/02/10 07:15:49;;;;;;;;;45.00;40.00;;;;;8.45;100.00;103076.69;4925873;28;45439;-84
2023/02/10 07:18:14;;;;;;;;;50.33;42.33;;;;;8.46;100.00;103082.03;4911008;29;45383;-84
2023/02/10 07:20:40;;;;;;;;;43.33;39.33;;;;;8.49;100.00;103074.28;4892507;29;45362;-84
2023/02/10 07:23:05;;;;;;;;;48.67;41.67;;;;;8.58;100.00;103085.47;4910324;29;45378;-85
2023/02/10 07:25:31;;;;;;;;;47.33;40.67;;;;;8.59;100.00;103089.03;4910264;29;45668;-86
2023/02/10 07:27:56;;;;;;;;;44.67;40.33;;;;;8.55;100.00;103085.25;4892904;29;47318;-85
2023/02/10 07:30:22;;;;;;;;;46.00;39.00;;;;;8.68;100.00;103089.56;4907990;29;45363;-84
2023/02/10 07:32:48;;;;;;;;;43.00;39.00;;;;;8.69;100.00;103090.50;4893796;29;45408;-84
2023/02/10 07:35:14;;;;;;;;;43.67;39.67;;;;;8.70;100.00;103063.13;4909108;29;45302;-84
2023/02/10 07:37:40;;;;;;;;;43.00;39.00;;;;;8.56;100.00;103063.25;4876572;29;46702;-83
2023/02/10 07:40:06;;;;;;;;;40.67;35.00;;;;;8.59;100.00;103087.28;4908585;29;45627;-83
2023/02/10 07:42:34;;;;;;;;;45.33;39.00;;;;;8.63;100.00;103090.13;4891779;29;45397;-84
2023/02/10 07:44:59;;;;;;;;;43.33;39.00;;;;;8.63;100.00;103091.03;4908123;29;45099;-84
2023/02/10 07:47:25;;;;;;;;;39.00;36.00;;;;;8.61;100.00;103085.63;4918014;28;47846;-84
2023/02/10 07:49:53;;;;;;;;;42.33;37.00;;;;;8.65;100.00;103101.75;4912584;28;45419;-84
2023/02/10 07:52:19;;;;;;;;;43.33;38.33;;;;;8.65;100.00;103104.41;4910599;28;45616;-84
2023/02/10 07:54:44;;;;;;;;;42.00;38.33;;;;;8.66;100.00;103109.78;4929390;28;45824;-84
2023/02/10 07:57:09;;;;;;;;;50.00;39.33;;;;;8.78;100.00;103118.47;4909116;28;47037;-84
2023/02/10 07:59:35;;;;;;;;;39.00;37.00;;;;;8.84;100.00;103123.22;4926205;28;44862;-83
2023/02/10 08:02:00;;;;;;;;;44.67;38.00;;;;;8.82;100.00;103116.91;4902719;29;45977;-83
2023/02/10 08:04:26;;;;;;;;;40.67;37.33;;;;;8.82;100.00;103099.25;4896358;28;45460;-83
2023/02/10 08:07:42;;;;;;;;;46.33;38.33;;;;;9.13;100.00;103118.69;4908776;28;47059;-84
2023/02/10 08:10:07;;;;;;;;;44.33;39.00;;;;;9.11;100.00;103121.28;4912252;29;44913;-83
2023/02/10 08:12:33;;;;;;;;;42.00;36.67;;;;;9.14;100.00;103121.47;4898872;29;45403;-83
2023/02/10 08:14:58;;;;;;;;;44.33;39.00;;;;;9.15;100.00;103111.75;4923272;28;45464;-82
2023/02/10 08:17:24;;;;;;;;;45.00;38.67;;;;;9.16;100.00;103116.25;4917029;28;45555;-82
2023/02/10 08:19:49;;;;;;;;;36.33;35.67;;;;;9.27;100.00;103124.81;4909252;28;45434;-83
2023/02/10 08:22:17;;;;;;;;;46.00;39.33;;;;;9.36;100.00;103128.00;4930859;28;44890;-84
2023/02/10 08:24:43;;;;;;;;;41.00;36.33;;;;;9.29;100.00;103118.78;4905105;28;45363;-84
2023/02/10 08:27:09;;;;;;;;;33.00;30.00;;;;;9.37;100.00;103122.81;4903396;28;46954;-83
2023/02/10 08:29:34;;;;;;;;;34.33;31.67;;;;;9.27;100.00;103116.84;4907328;28;45448;-84
2023/02/10 08:32:01;;;;;;;;;38.00;34.00;;;;;9.43;100.00;103134.59;4932740;28;45456;-84
2023/02/10 08:34:27;;;;;;;;;41.33;37.00;;;;;9.41;100.00;103123.88;4910031;28;45468;-84
2023/02/10 08:36:52;;;;;;;;;34.00;31.33;;;;;9.33;100.00;103107.53;4929624;28;45634;-83
2023/02/10 08:40:09;;;;;;;;;27.33;24.67;;;;;9.62;100.00;103124.19;4941369;28;45547;-83
2023/02/10 08:42:36;;;;;;;;;37.33;32.33;;;;;9.49;100.00;103119.00;4936342;28;45461;-84
2023/02/10 08:45:02;;;;;;;;;33.33;29.00;;;;;9.51;100.00;103128.88;4910092;28;45659;-84
2023/02/10 08:47:27;;;;;;;;;36.33;32.00;;;;;9.54;100.00;103130.81;4927838;28;45920;-84
2023/02/10 08:49:53;;;;;;;;;35.67;32.67;;;;;9.63;100.00;103130.41;4920668;28;46006;-82
2023/02/10 08:53:21;;;;;;;;;47.67;36.67;;;;;9.85;100.00;103137.84;4917023;28;45144;-83
2023/02/10 08:56:01;;;;;;;;;37.67;31.33;;;;;9.91;100.00;103128.44;4901426;28;45442;-84
2023/02/10 08:58:27;;;;;;;;;39.67;35.33;;;;;9.91;100.00;103135.50;4908465;28;47997;-82
2023/02/10 09:00:52;;;;;;;;;35.00;33.00;;;;;9.89;100.00;103135.44;4905560;28;45378;-82
2023/02/10 09:03:18;;;;;;;;;34.00;31.33;;;;;9.97;100.00;103131.44;4910313;28;44768;-81
2023/02/10 09:05:45;;;;;;;;;30.33;30.33;;;;;10.05;100.00;103131.88;4930052;28;45371;-81
2023/02/10 09:08:12;;;;;;;;;38.67;36.00;;;;;9.99;100.00;103126.22;4887445;28;47722;-80
2023/02/10 09:10:39;;;;;;;;;48.67;39.33;;;;;10.16;100.00;103129.78;4891803;28;45707;-81
2023/02/10 09:13:05;;;;;;;;;43.67;38.67;;;;;10.24;100.00;103135.53;4905855;29;44805;-82
2023/02/10 09:15:31;;;;;;;;;40.33;38.00;;;;;10.38;100.00;103130.16;4901746;28;45948;-82
2023/02/10 09:17:59;;;;;;;;;47.67;38.67;;;;;10.38;100.00;103138.16;4910593;28;47270;-84
2023/02/10 09:21:14;;;;;;;;;46.67;41.33;;;;;10.30;100.00;103098.66;4913167;28;45504;-84
2023/02/10 09:23:40;;;;;;;;;47.67;39.00;;;;;10.55;100.00;103136.38;4891493;28;45674;-84
2023/02/10 09:26:23;;;;;;;;;41.33;37.67;;;;;10.64;100.00;103111.06;4928829;28;44882;-83
2023/02/10 09:28:55;;;;;;;;;45.33;39.00;;;;;10.59;100.00;103101.09;4917211;28;45447;-84
2023/02/10 09:31:26;;;;;;;;;47.00;38.33;;;;;10.81;100.00;103123.50;4941887;28;45395;-84
2023/02/10 09:34:29;;;;;;;;;40.67;36.67;;;;;10.93;100.00;103126.78;4938005;28;45542;-84
2023/02/10 09:36:58;;;;;;;;;40.00;35.67;;;;;10.81;100.00;103096.88;4900812;29;45466;-84
2023/02/10 09:39:30;;;;;;;;;12.33;10.33;;;;;10.82;100.00;103082.72;4907161;28;47512;-82
2023/02/10 09:42:19;;;;;;;;;33.67;33.67;;;;;10.93;100.00;103115.25;4908633;28;45571;-84
2023/02/10 09:44:55;;;;;;;;;32.33;32.00;;;;;11.10;100.00;103132.97;4909075;28;45333;-84
2023/02/10 09:48:14;;;;;;;;;40.33;35.00;;;;;11.14;100.00;103139.34;4908882;28;45432;-81
2023/02/10 09:50:55;;;;;;;;;37.33;33.00;;;;;10.90;100.00;103097.34;4907928;28;45811;-82
2023/02/10 09:56:43;;;;;;;;;36.67;34.00;;;;;11.06;100.00;103135.41;4928789;28;46050;-83
2023/02/10 09:59:41;;;;;;;;;34.33;32.33;;;;;11.27;100.00;103141.81;4914927;28;45432;-83
2023/02/10 10:02:42;;;;;;;;;36.00;35.00;;;;;11.39;100.00;103145.06;4844828;29;47208;-83
2023/02/10 10:05:23;;;;;;;;;38.33;33.00;;;;;11.49;100.00;103138.47;4824277;29;45464;-83
2023/02/10 10:17:53;;;;;;;;;34.00;29.33;;;;;11.82;100.00;103149.81;4847963;29;45578;-81
2023/02/10 10:20:24;;;;;;;;;29.00;27.00;;;;;11.86;100.00;103145.53;4832977;29;45581;-81
2023/02/10 10:23:10;;;;;;;;;31.00;31.00;;;;;11.90;100.00;103154.66;4852359;29;45400;-81
2023/02/10 10:26:13;;;;;;;;;37.67;35.00;;;;;12.07;100.00;103148.31;4852979;29;45444;-80
2023/02/10 10:28:57;;;;;;;;;36.67;34.00;;;;;12.12;100.00;103152.13;4851576;29;45660;-82
2023/02/10 10:31:39;;;;;;;;;38.33;34.33;;;;;12.26;100.00;103157.19;4858888;29;45319;-82
2023/02/10 10:34:07;;;;;;;;;37.00;34.00;;;;;12.24;100.00;103148.19;4838885;29;45594;-83
2023/02/10 10:36:49;;;;;;;;;33.67;30.33;;;;;12.30;100.00;103153.81;4841730;29;49215;-83
2023/02/10 10:39:39;;;;;;;;;38.00;35.00;;;;;12.38;100.00;103160.41;4870354;29;44859;-82
2023/02/10 10:43:02;;;;;;;;;36.33;34.33;;;;;12.43;100.00;103161.53;4906281;29;45409;-82
2023/02/10 10:45:44;;;;;;;;;38.67;36.33;;;;;12.50;100.00;103169.00;4835069;29;46634;-83
2023/02/10 10:48:16;;;;;;;;;37.33;34.33;;;;;12.41;100.00;103164.13;4836093;29;48354;-82
2023/02/10 10:50:42;;;;;;;;;39.67;36.00;;;;;12.42;100.00;103165.03;4845360;29;45810;-82
2023/02/10 10:53:19;;;;;;;;;48.00;38.33;;;;;12.46;100.00;103166.09;4842031;29;45520;-81
2023/02/10 10:55:53;;;;;;;;;31.33;28.33;;;;;12.30;100.00;103156.47;4821052;29;46490;-82
2023/02/10 10:58:34;;;;;;;;;33.00;30.67;;;;;12.36;100.00;103164.75;4851265;29;45365;-84
2023/02/10 11:01:15;;;;;;;;;37.00;34.00;;;;;12.33;100.00;103148.63;4848426;29;45362;-83
2023/02/10 11:03:41;;;;;;;;;36.33;33.00;;;;;12.33;100.00;103149.53;4846824;29;45910;-83
2023/02/10 11:06:17;;;;;;;;;38.00;33.33;;;;;12.40;100.00;103150.72;4817811;29;45840;-82
2023/02/10 11:08:52;;;;;;;;;45.00;38.00;;;;;12.44;100.00;103146.44;4809966;29;46811;-82
2023/02/10 11:11:43;;;;;;;;;37.67;32.00;;;;;12.44;100.00;103138.41;4829896;29;45922;-82
2023/02/10 11:14:35;;;;;;;;;43.33;38.00;;;;;12.47;100.00;103141.25;4852231;29;45468;-82
2023/02/10 11:17:34;;;;;;;;;39.00;36.67;;;;;12.55;100.00;103138.06;4868750;29;45620;-82
2023/02/10 11:20:26;;;;;;;;;44.67;37.00;;;;;12.59;100.00;103116.00;4874266;29;47753;-82
2023/02/10 11:23:18;;;;;;;;;39.33;36.33;;;;;12.67;100.00;103124.34;4912459;29;45400;-84
2023/02/10 12:01:01;;;;;;;;;53.67;41.00;;;;;12.44;100.00;103128.66;4854115;29;45901;-74
2023/02/10 12:03:37;;;;;;;;;46.67;37.33;;;;;12.47;100.00;103125.22;4862125;29;45587;-74
2023/02/10 12:06:24;;;;;;;;;47.33;39.67;;;;;12.59;100.00;103123.09;4845775;29;45604;-74
2023/02/10 12:09:06;;;;;;;;;44.00;35.00;;;;;12.58;100.00;103113.25;4864057;29;45421;-74
2023/02/10 12:12:14;;;;;;;;;44.67;35.33;;;;;12.72;100.00;103121.88;4861273;29;44867;-74